Time;durP1;ratioP1;P1;durP2;ratioP2;P2;SDS_P1;SDS_P2;PMS_P1;PMS_P2;Temp;Humidity;BMP_temperature;BMP_pressure;BME280_temperature;BME280_humidity;BME280_pressure;Samples;Min_cycle;Max_cycle;Signal;HPM_P1;HPM_P2
2022/08/04 00:00:26;;;;;;;8.57;3.17;;;20.50;99.90;;;;;;5074428;28;20442;-62
2022/08/04 00:03:08;;;;;;;4.95;2.50;;;20.50;99.90;;;;;;5074138;28;20036;-62
2022/08/04 00:05:43;;;;;;;4.50;2.72;;;20.50;99.90;;;;;;5075614;28;20041;-62
2022/08/04 00:08:14;;;;;;;5.40;2.63;;;20.40;99.90;;;;;;5075637;28;20465;-62
2022/08/04 00:10:46;;;;;;;3.95;2.65;;;20.40;99.90;;;;;;5075533;28;20415;-61
2022/08/04 00:13:12;;;;;;;4.53;2.78;;;20.40;99.90;;;;;;5075501;28;20049;-61
2022/08/04 00:15:38;;;;;;;6.80;2.92;;;20.40;99.90;;;;;;5074016;28;20048;-62
2022/08/04 00:18:07;;;;;;;5.10;2.78;;;20.40;99.90;;;;;;5073793;28;20052;-62
2022/08/04 00:20:36;;;;;;;4.22;2.55;;;20.40;99.90;;;;;;5075119;28;20036;-62
2022/08/04 00:23:03;;;;;;;5.22;3.55;;;20.30;99.90;;;;;;5075366;28;20040;-62
2022/08/04 00:25:30;;;;;;;5.53;3.33;;;20.30;99.90;;;;;;5074008;28;20486;-62
2022/08/04 00:27:56;;;;;;;4.82;2.50;;;20.30;99.90;;;;;;5075188;28;20408;-63
2022/08/04 00:30:23;;;;;;;5.72;2.55;;;20.40;99.90;;;;;;5073687;28;20044;-61
2022/08/04 00:32:48;;;;;;;5.85;3.28;;;20.40;99.90;;;;;;5074910;28;20048;-62
2022/08/04 00:35:15;;;;;;;5.07;2.97;;;20.40;99.90;;;;;;5073588;28;20389;-62
2022/08/04 00:37:45;;;;;;;4.93;2.67;;;20.30;99.90;;;;;;5074659;28;20042;-62
2022/08/04 00:40:44;;;;;;;8.68;3.00;;;20.40;99.90;;;;;;5074695;28;20040;-62
2022/08/04 00:43:58;;;;;;;5.22;2.58;;;20.40;99.90;;;;;;5074726;28;20041;-62
2022/08/04 00:46:53;;;;;;;4.82;2.45;;;20.30;99.90;;;;;;5042962;28;20093;-62
2022/08/04 00:49:41;;;;;;;5.07;2.25;;;20.30;99.90;;;;;;5074537;28;20142;-62
2022/08/04 00:52:25;;;;;;;4.70;2.88;;;20.30;99.90;;;;;;5074788;28;20403;-62
2022/08/04 00:55:10;;;;;;;8.13;2.40;;;20.30;99.90;;;;;;5074711;28;20040;-62
2022/08/04 00:57:38;;;;;;;6.18;3.00;;;20.20;99.90;;;;;;5074553;28;20531;-62
2022/08/04 01:00:09;;;;;;;5.03;2.80;;;20.20;99.90;;;;;;5074625;28;20040;-62
2022/08/04 01:02:55;;;;;;;7.03;2.78;;;20.20;99.90;;;;;;5073290;28;20136;-62
2022/08/04 01:05:35;;;;;;;7.60;2.85;;;20.20;99.90;;;;;;5074194;28;20043;-62
2022/08/04 01:08:27;;;;;;;5.97;2.77;;;20.20;99.90;;;;;;5074433;28;20063;-63
2022/08/04 01:10:56;;;;;;;6.57;2.42;;;20.20;99.90;;;;;;5073988;28;20075;-62
2022/08/04 01:13:37;;;;;;;4.45;2.45;;;20.20;99.90;;;;;;5074324;28;20391;-61
2022/08/04 01:16:06;;;;;;;9.80;2.60;;;20.20;99.90;;;;;;5074071;28;20103;-62
2022/08/04 01:18:53;;;;;;;6.47;2.92;;;20.20;99.90;;;;;;5073879;28;20036;-63
2022/08/04 01:21:43;;;;;;;7.90;2.70;;;20.20;99.90;;;;;;5073855;28;20079;-63
2022/08/04 01:24:35;;;;;;;4.82;2.38;;;20.10;99.90;;;;;;5074116;28;20056;-62
2022/08/04 01:27:08;;;;;;;5.30;2.97;;;20.10;99.90;;;;;;5055831;28;20131;-62
2022/08/04 01:29:39;;;;;;;7.00;3.10;;;20.10;99.90;;;;;;5074045;28;20404;-62
2022/08/04 01:32:30;;;;;;;7.07;2.97;;;20.10;99.90;;;;;;5072466;28;20101;-62
2022/08/04 01:35:01;;;;;;;4.18;2.20;;;20.10;99.90;;;;;;5073589;28;20083;-62
2022/08/04 01:37:36;;;;;;;6.60;2.70;;;20.10;99.90;;;;;;5073530;28;20385;-62
2022/08/04 01:40:06;;;;;;;6.68;2.60;;;20.10;99.90;;;;;;5073802;28;20036;-62
2022/08/04 01:42:34;;;;;;;7.22;2.28;;;20.00;99.90;;;;;;5039328;28;20040;-62
2022/08/04 01:45:03;;;;;;;5.32;2.97;;;20.00;99.90;;;;;;5072494;28;20032;-62
2022/08/04 01:47:30;;;;;;;4.80;2.67;;;20.00;99.90;;;;;;5073408;28;20051;-62
2022/08/04 01:50:04;;;;;;;6.40;2.80;;;20.00;99.90;;;;;;5073618;28;20051;-62
2022/08/04 01:52:33;;;;;;;4.20;2.45;;;20.00;99.90;;;;;;5055829;28;20036;-62
2022/08/04 01:55:01;;;;;;;4.45;2.75;;;20.00;99.90;;;;;;5071971;28;20033;-62
2022/08/04 01:57:28;;;;;;;7.53;3.03;;;20.00;99.90;;;;;;5073466;28;20500;-61
2022/08/04 01:59:57;;;;;;;6.13;2.95;;;20.00;99.90;;;;;;5073432;28;20032;-62
2022/08/04 02:02:25;;;;;;;5.13;2.67;;;20.00;99.90;;;;;;5073482;28;20036;-62
2022/08/04 02:04:51;;;;;;;5.13;2.35;;;19.90;99.90;;;;;;5073399;28;20040;-62
2022/08/04 02:07:43;;;;;;;4.63;2.40;;;19.90;99.90;;;;;;5071813;28;20435;-61
2022/08/04 02:10:28;;;;;;;4.07;2.50;;;19.90;99.90;;;;;;5072138;28;20534;-62
2022/08/04 02:13:21;;;;;;;3.97;2.30;;;19.80;99.90;;;;;;5073267;28;20472;-62
2022/08/04 02:16:20;;;;;;;5.60;2.88;;;19.80;99.90;;;;;;5072633;28;20045;-62
2022/08/04 02:19:15;;;;;;;6.13;2.70;;;19.80;99.90;;;;;;5072791;28;20059;-62
2022/08/04 02:21:42;;;;;;;4.25;2.80;;;19.70;99.90;;;;;;5073099;28;20043;-62
2022/08/04 02:24:13;;;;;;;4.40;2.72;;;19.70;99.90;;;;;;5072252;28;20080;-62
2022/08/04 02:26:41;;;;;;;6.60;3.33;;;19.70;99.90;;;;;;5071825;28;20065;-62
2022/08/04 02:29:34;;;;;;;4.28;2.63;;;19.70;99.90;;;;;;5073103;28;20040;-62
2022/08/04 02:32:04;;;;;;;3.53;2.35;;;19.70;99.90;;;;;;5071818;28;20124;-62
2022/08/04 02:34:53;;;;;;;7.67;3.13;;;19.60;99.90;;;;;;5071508;28;20398;-62
2022/08/04 02:37:19;;;;;;;9.25;2.38;;;19.60;99.90;;;;;;5072981;28;20116;-62
2022/08/04 02:39:49;;;;;;;9.38;3.08;;;19.60;99.90;;;;;;5072895;28;20111;-62
2022/08/04 02:42:15;;;;;;;8.10;2.60;;;19.50;99.90;;;;;;5072984;28;20045;-62
2022/08/04 02:44:47;;;;;;;6.72;2.95;;;19.50;99.90;;;;;;5072927;28;20431;-62
2022/08/04 02:47:16;;;;;;;6.82;2.63;;;19.40;99.90;;;;;;5072963;28;20131;-62
2022/08/04 02:49:45;;;;;;;4.13;2.53;;;19.40;99.90;;;;;;5072928;28;20511;-62
2022/08/04 02:52:13;;;;;;;3.88;2.50;;;19.30;99.90;;;;;;5071599;28;20048;-62
2022/08/04 02:54:44;;;;;;;7.10;3.38;;;19.30;99.90;;;;;;5072830;28;20049;-62
2022/08/04 02:57:14;;;;;;;5.32;2.72;;;19.10;99.90;;;;;;5071294;28;20052;-62
2022/08/04 03:00:07;;;;;;;4.03;2.63;;;19.10;99.90;;;;;;5072452;28;20040;-61
2022/08/04 03:03:03;;;;;;;4.38;2.65;;;19.00;99.90;;;;;;5066261;28;20085;-62
2022/08/04 03:05:55;;;;;;;5.80;2.45;;;18.90;99.90;;;;;;5072749;28;20111;-62
2022/08/04 03:08:39;;;;;;;5.65;2.90;;;18.80;99.90;;;;;;5072704;28;20079;-62
2022/08/04 03:11:19;;;;;;;5.13;3.03;;;18.80;99.90;;;;;;5072738;28;20040;-62
2022/08/04 03:14:09;;;;;;;4.97;3.00;;;18.80;99.90;;;;;;5072675;28;20377;-62
2022/08/04 03:16:38;;;;;;;6.53;3.05;;;18.70;99.90;;;;;;5072342;28;20060;-62
2022/08/04 03:19:49;;;;;;;4.15;2.63;;;18.60;99.90;;;;;;5071078;28;20048;-62
2022/08/04 03:22:40;;;;;;;10.63;2.60;;;18.60;99.90;;;;;;5062162;28;20044;-62
2022/08/04 03:25:24;;;;;;;6.38;3.45;;;18.50;99.90;;;;;;5072627;28;20037;-62
2022/08/04 03:28:19;;;;;;;7.88;3.58;;;18.60;99.90;;;;;;5072300;28;20040;-62
2022/08/04 03:31:29;;;;;;;5.07;3.47;;;18.50;99.90;;;;;;5072494;28;20047;-62
2022/08/04 03:34:42;;;;;;;13.70;3.25;;;18.50;99.90;;;;;;5072720;28;20511;-62
2022/08/04 03:37:45;;;;;;;4.88;2.88;;;18.50;99.90;;;;;;5063816;28;20083;-62
2022/08/04 03:40:19;;;;;;;4.88;2.83;;;18.50;99.90;;;;;;5076052;28;20068;-62
2022/08/04 03:42:57;;;;;;;7.38;3.47;;;18.40;99.90;;;;;;5076052;28;20040;-62
2022/08/04 03:46:06;;;;;;;5.70;3.03;;;18.40;99.90;;;;;;5074542;28;20067;-61
2022/08/04 03:49:10;;;;;;;10.57;3.60;;;18.40;99.90;;;;;;5074719;28;20052;-62
2022/08/04 03:55:34;;;;;;;6.32;3.55;;;18.40;99.90;;;;;;5075522;28;20154;-62
2022/08/04 03:58:19;;;;;;;;;;;18.50;99.90;;;;;;5076186;28;20047;-62
2022/08/04 04:00:50;;;;;;;5.28;3.35;;;18.40;99.90;;;;;;5075422;28;19942;-63
2022/08/04 04:03:28;;;;;;;9.32;3.85;;;18.40;99.90;;;;;;5075603;28;20476;-62
2022/08/04 04:06:12;;;;;;;8.38;3.70;;;18.40;99.90;;;;;;5057362;28;20043;-62
2022/08/04 04:08:43;;;;;;;7.30;3.47;;;18.40;99.90;;;;;;5074326;28;20045;-62
2022/08/04 04:11:34;;;;;;;8.27;3.95;;;18.40;99.90;;;;;;5075535;28;20041;-62
2022/08/04 04:14:06;;;;;;;5.95;3.45;;;18.50;99.90;;;;;;5075522;28;20048;-61
2022/08/04 04:17:06;;;;;;;7.00;3.88;;;18.40;99.90;;;;;;5075239;28;20173;-62
2022/08/04 04:19:40;;;;;;;6.22;3.40;;;18.50;99.90;;;;;;5075313;28;20098;-61
2022/08/04 04:22:33;;;;;;;8.23;3.30;;;18.40;99.90;;;;;;5075398;28;20039;-62
2022/08/04 04:25:20;;;;;;;8.13;3.10;;;18.50;99.90;;;;;;5074668;28;20048;-62
2022/08/04 04:28:19;;;;;;;7.57;3.83;;;18.50;99.90;;;;;;5073702;28;20047;-62
2022/08/04 04:31:15;;;;;;;7.90;3.13;;;18.50;99.90;;;;;;5073918;28;20047;-61
2022/08/04 04:34:05;;;;;;;5.68;3.15;;;18.60;99.90;;;;;;5075144;28;20369;-62
2022/08/04 04:36:39;;;;;;;5.10;3.00;;;18.60;99.90;;;;;;5073879;28;20036;-61
2022/08/04 04:39:05;;;;;;;7.78;3.78;;;18.60;99.90;;;;;;5075002;28;20041;-62
2022/08/04 04:41:50;;;;;;;5.45;3.45;;;18.60;99.90;;;;;;5075061;28;20383;-61
2022/08/04 04:44:41;;;;;;;6.63;3.70;;;18.70;99.90;;;;;;5074958;28;20403;-62
2022/08/04 04:47:41;;;;;;;7.05;4.22;;;18.70;99.90;;;;;;5073891;28;20098;-62
2022/08/04 04:50:06;;;;;;;6.80;4.20;;;18.70;99.90;;;;;;5065684;28;20045;-62
2022/08/04 04:52:49;;;;;;;8.15;4.00;;;18.60;99.90;;;;;;5074792;28;20090;-61
2022/08/04 04:55:27;;;;;;;6.40;3.60;;;18.70;99.90;;;;;;5074766;28;20029;-61
2022/08/04 04:57:59;;;;;;;5.80;3.33;;;18.70;99.90;;;;;;5074293;28;20155;-62
2022/08/04 05:00:50;;;;;;;7.03;3.65;;;18.70;99.90;;;;;;5073358;28;20040;-61
2022/08/04 05:03:28;;;;;;;6.28;3.67;;;18.80;99.90;;;;;;5074597;28;20455;-61
2022/08/04 05:06:27;;;;;;;6.05;3.13;;;18.80;99.90;;;;;;5072962;28;20098;-61
2022/08/04 05:09:07;;;;;;;6.13;3.33;;;18.80;99.90;;;;;;5074449;28;20412;-61
2022/08/04 05:11:52;;;;;;;9.48;3.88;;;18.80;99.90;;;;;;5074359;28;20048;-62
2022/08/04 05:14:32;;;;;;;5.97;3.85;;;18.90;99.90;;;;;;5074326;28;20420;-61
2022/08/04 05:17:13;;;;;;;7.73;4.23;;;18.90;99.90;;;;;;5072697;28;20071;-62
2022/08/04 05:19:50;;;;;;;6.65;3.67;;;19.00;99.90;;;;;;5072574;28;20380;-62
2022/08/04 05:22:38;;;;;;;12.02;3.78;;;19.00;99.90;;;;;;5073871;28;20047;-61
2022/08/04 05:25:11;;;;;;;5.10;3.25;;;19.10;99.90;;;;;;5070239;28;20044;-62
2022/08/04 05:28:04;;;;;;;6.65;3.42;;;19.20;99.90;;;;;;5072601;28;20186;-62
2022/08/04 05:30:35;;;;;;;6.43;3.78;;;19.40;99.90;;;;;;5065531;28;20480;-61
2022/08/04 05:33:06;;;;;;;6.88;3.65;;;19.50;99.90;;;;;;5072716;28;20044;-62
2022/08/04 05:35:44;;;;;;;5.30;2.97;;;19.60;99.90;;;;;;5073615;28;20146;-62
2022/08/04 05:38:14;;;;;;;9.18;3.30;;;19.70;99.90;;;;;;5073909;28;20041;-62
2022/08/04 05:40:42;;;;;;;4.85;2.85;;;19.70;99.90;;;;;;5073629;28;20080;-62
2022/08/04 05:43:10;;;;;;;5.90;3.10;;;19.80;99.90;;;;;;5073480;28;20044;-62
2022/08/04 05:45:36;;;;;;;5.40;2.83;;;19.90;99.90;;;;;;5073442;28;20439;-62
2022/08/04 05:48:05;;;;;;;5.40;2.42;;;20.00;99.90;;;;;;5073675;28;20040;-63
2022/08/04 05:50:32;;;;;;;4.30;2.47;;;20.10;99.90;;;;;;5072086;28;20076;-64
2022/08/04 05:52:59;;;;;;;7.30;3.03;;;20.20;99.90;;;;;;5072305;28;20541;-62
2022/08/04 05:55:26;;;;;;;7.85;3.20;;;20.30;99.90;;;;;;5073263;28;20044;-62
2022/08/04 05:57:53;;;;;;;6.85;3.08;;;20.30;99.90;;;;;;5073153;28;20124;-61
2022/08/04 06:00:19;;;;;;;6.43;2.85;;;20.30;99.90;;;;;;5073433;28;20454;-62
2022/08/04 06:02:47;;;;;;;5.18;2.30;;;20.40;99.90;;;;;;5073471;28;20079;-62
2022/08/04 06:05:16;;;;;;;4.68;2.97;;;20.50;99.90;;;;;;5072102;28;20044;-62
2022/08/04 06:07:43;;;;;;;4.93;2.45;;;20.50;99.90;;;;;;5073128;28;20044;-62
2022/08/04 06:10:09;;;;;;;7.70;2.85;;;20.60;99.90;;;;;;5072931;28;20036;-62
2022/08/04 06:12:54;;;;;;;4.50;2.20;;;20.70;99.90;;;;;;5071815;28;20090;-62
2022/08/04 06:15:22;;;;;;;5.13;3.03;;;20.80;99.90;;;;;;5073238;28;20032;-62
2022/08/04 06:17:54;;;;;;;4.78;2.40;;;20.90;99.90;;;;;;5071484;28;20060;-62
2022/08/04 06:20:22;;;;;;;5.55;2.47;;;21.00;99.90;;;;;;5072029;28;20441;-62
2022/08/04 06:22:53;;;;;;;6.05;2.85;;;21.10;99.90;;;;;;5071894;28;20451;-62
2022/08/04 06:25:23;;;;;;;5.15;2.35;;;21.20;99.90;;;;;;5072841;28;20075;-63
2022/08/04 06:27:50;;;;;;;3.67;2.40;;;21.30;99.90;;;;;;5072998;28;20044;-62
2022/08/04 06:30:18;;;;;;;3.83;2.08;;;21.40;99.90;;;;;;5072913;28;20036;-62
2022/08/04 06:32:47;;;;;;;4.65;2.78;;;21.60;99.90;;;;;;5071632;28;20044;-62
2022/08/04 06:35:17;;;;;;;5.33;2.47;;;21.70;99.90;;;;;;5072871;28;20048;-62
2022/08/04 06:37:44;;;;;;;4.25;2.55;;;21.90;99.90;;;;;;5072784;28;20158;-62
2022/08/04 06:40:13;;;;;;;5.13;2.63;;;22.00;99.90;;;;;;5072821;28;20049;-62
2022/08/04 06:42:40;;;;;;;4.63;2.40;;;22.10;99.90;;;;;;5072755;28;20064;-62
2022/08/04 06:45:07;;;;;;;6.25;2.30;;;22.30;99.90;;;;;;5072694;28;20032;-63
2022/08/04 06:47:34;;;;;;;3.05;1.80;;;22.40;99.90;;;;;;5104989;28;20044;-62
2022/08/04 06:50:00;;;;;;;3.08;1.73;;;22.60;99.90;;;;;;5071118;28;20277;-62
2022/08/04 06:52:26;;;;;;;3.45;2.05;;;22.90;99.90;;;;;;5072936;28;20372;-62
2022/08/04 06:54:54;;;;;;;4.78;1.70;;;23.10;99.90;;;;;;5072814;28;20052;-62
2022/08/04 06:57:25;;;;;;;3.45;2.17;;;23.30;99.90;;;;;;5105183;28;20045;-64
2022/08/04 07:00:07;;;;;;;3.15;1.73;;;23.40;99.90;;;;;;5072673;28;20093;-62
2022/08/04 07:02:39;;;;;;;2.70;1.83;;;23.50;99.90;;;;;;5072819;28;20457;-62
2022/08/04 07:05:06;;;;;;;2.25;1.60;;;23.60;99.90;;;;;;5071604;28;20068;-61
2022/08/04 07:07:33;;;;;;;3.40;1.80;;;23.60;99.90;;;;;;5072725;28;20033;-62
2022/08/04 07:10:00;;;;;;;5.78;2.20;;;23.60;99.90;;;;;;5074036;28;20048;-62
2022/08/04 07:12:27;;;;;;;4.60;2.13;;;23.60;99.90;;;;;;5075129;28;20055;-62
2022/08/04 07:14:52;;;;;;;3.70;1.95;;;23.70;99.90;;;;;;5076628;28;20048;-62
2022/08/04 07:17:20;;;;;;;5.32;2.10;;;23.80;99.90;;;;;;5074741;28;20404;-62
2022/08/04 07:19:46;;;;;;;3.13;1.60;;;23.90;99.90;;;;;;5076451;28;20048;-62
2022/08/04 07:22:13;;;;;;;4.15;1.65;;;24.10;99.90;;;;;;5076473;28;20442;-62
2022/08/04 07:24:41;;;;;;;6.50;1.83;;;24.20;99.90;;;;;;5074896;28;20037;-62
2022/08/04 07:27:07;;;;;;;2.58;1.45;;;24.30;99.90;;;;;;5076140;28;20422;-62
2022/08/04 07:29:37;;;;;;;3.92;1.55;;;24.30;99.90;;;;;;5074862;28;20119;-62
2022/08/04 07:32:04;;;;;;;3.30;1.67;;;24.40;99.90;;;;;;5075117;28;20048;-62
2022/08/04 07:34:30;;;;;;;4.53;1.45;;;24.50;99.90;;;;;;5075968;28;20037;-61
2022/08/04 07:36:58;;;;;;;4.22;1.75;;;24.50;99.90;;;;;;5076211;28;20070;-62
2022/08/04 07:39:28;;;;;;;2.70;1.45;;;24.60;99.90;;;;;;5076098;28;20044;-62
2022/08/04 07:41:55;;;;;;;3.78;1.65;;;24.60;99.90;;;;;;5074840;28;20062;-62
2022/08/04 07:44:21;;;;;;;2.55;1.60;;;24.70;99.90;;;;;;5075996;28;20083;-62
2022/08/04 07:46:47;;;;;;;4.30;1.58;;;24.80;99.90;;;;;;5075846;28;20080;-61
2022/08/04 07:49:13;;;;;;;5.97;2.05;;;24.90;99.90;;;;;;5075846;28;20040;-62
2022/08/04 07:51:40;;;;;;;4.75;1.75;;;25.10;99.90;;;;;;5075774;28;20036;-62
2022/08/04 07:54:09;;;;;;;3.75;1.60;;;25.20;99.90;;;;;;5075767;28;20079;-62
2022/08/04 07:56:37;;;;;;;4.93;1.30;;;25.30;99.90;;;;;;5075710;28;20412;-62
2022/08/04 07:59:03;;;;;;;2.97;1.65;;;25.30;99.90;;;;;;5074426;28;20299;-62
2022/08/04 08:01:29;;;;;;;2.95;1.30;;;25.40;99.90;;;;;;5075633;28;20032;-62
2022/08/04 08:03:57;;;;;;;3.20;1.40;;;25.50;99.90;;;;;;5074309;28;20044;-62
2022/08/04 08:06:23;;;;;;;3.65;1.30;;;25.50;99.90;;;;;;5075485;28;20119;-62
2022/08/04 08:08:49;;;;;;;5.05;1.52;;;25.70;99.90;;;;;;5075495;28;20037;-62
2022/08/04 08:11:16;;;;;;;3.42;1.45;;;25.80;99.90;;;;;;5075367;28;20051;-62
2022/08/04 08:13:44;;;;;;;5.82;1.63;;;26.00;99.90;;;;;;5075401;28;20115;-62
2022/08/04 08:16:10;;;;;;;3.20;1.17;;;26.00;99.90;;;;;;5075253;28;20036;-62
2022/08/04 08:18:36;;;;;;;3.90;1.60;;;26.10;99.90;;;;;;5073698;28;20067;-62
2022/08/04 08:21:02;;;;;;;5.85;1.70;;;26.10;99.90;;;;;;5072787;28;20040;-62
2022/08/04 08:23:30;;;;;;;1.95;1.25;;;26.40;99.90;;;;;;5075343;28;20075;-62
2022/08/04 08:25:58;;;;;;;2.22;1.00;;;26.30;99.90;;;;;;5074062;28;20471;-62
2022/08/04 08:28:24;;;;;;;1.83;1.17;;;26.60;99.90;;;;;;5073873;28;20120;-62
2022/08/04 08:30:50;;;;;;;2.85;1.52;;;26.80;99.90;;;;;;5075269;28;20475;-62
2022/08/04 08:33:16;;;;;;;1.80;1.20;;;26.80;99.90;;;;;;5075216;28;20047;-62
2022/08/04 08:35:55;;;;;;;2.63;1.10;;;27.00;99.90;;;;;;5075135;28;20423;-62
2022/08/04 08:38:36;;;;;;;3.95;1.42;;;27.10;99.90;;;;;;5074734;28;20131;-62
2022/08/04 08:41:14;;;;;;;3.22;1.05;;;;;;;;;;5074780;28;20119;-62
2022/08/04 08:43:47;;;;;;;3.78;1.50;;;;;;;;;;5074981;28;20037;-62
2022/08/04 08:46:26;;;;;;;2.47;1.20;;;27.30;99.90;;;;;;5074941;28;20545;-62
2022/08/04 08:49:02;;;;;;;3.17;1.20;;;27.20;99.90;;;;;;5074577;28;20044;-62
2022/08/04 08:51:33;;;;;;;3.10;1.20;;;27.30;99.90;;;;;;5074879;28;20048;-62
2022/08/04 08:54:24;;;;;;;2.40;1.30;;;27.20;99.90;;;;;;5074849;28;20043;-62
2022/08/04 08:57:32;;;;;;;2.50;1.42;;;27.20;99.90;;;;;;5074515;28;20041;-62
2022/08/04 09:00:25;;;;;;;1.90;1.23;;;27.30;99.90;;;;;;5073074;28;20044;-62
2022/08/04 09:03:02;;;;;;;3.05;1.50;;;27.40;99.90;;;;;;5074626;28;20040;-62
2022/08/04 09:05:29;;;;;;;2.42;1.33;;;;;;;;;;5074566;28;20041;-62
2022/08/04 09:08:17;;;;;;;1.17;0.98;;;;;;;;;;5072990;28;20044;-63
2022/08/04 09:10:59;;;;;;;2.30;1.30;;;27.60;99.90;;;;;;5074521;28;20068;-62
2022/08/04 09:13:47;;;;;;;1.42;1.17;;;;;;;;;;5073180;28;20052;-62
2022/08/04 09:16:30;;;;;;;1.95;1.25;;;28.00;99.90;;;;;;5074313;28;20041;-62
2022/08/04 09:19:16;;;;;;;2.70;1.25;;;;;;;;;;5072622;28;20056;-62
2022/08/04 09:22:13;;;;;;;2.60;1.27;;;28.30;99.90;;;;;;5072690;28;20045;-62
2022/08/04 09:25:07;;;;;;;5.78;1.73;;;28.40;99.90;;;;;;5056289;28;20044;-62
2022/08/04 09:27:39;;;;;;;3.20;1.20;;;28.50;99.90;;;;;;5074108;28;20454;-62
2022/08/04 09:30:06;;;;;;;1.98;1.08;;;28.60;99.90;;;;;;5074172;28;20433;-62
2022/08/04 09:32:35;;;;;;;2.63;1.55;;;28.60;99.90;;;;;;5073752;28;20036;-62
2022/08/04 09:35:38;;;;;;;4.90;1.70;;;28.70;99.90;;;;;;5073996;28;20079;-63
2022/08/04 09:38:34;;;;;;;3.15;1.13;;;28.80;99.90;;;;;;5072529;28;20378;-62
2022/08/04 09:41:24;;;;;;;2.55;1.25;;;28.80;99.90;;;;;;5073616;28;20041;-62
2022/08/04 09:44:02;;;;;;;2.05;1.55;;;28.90;99.90;;;;;;5072259;28;20080;-62
2022/08/04 09:46:44;;;;;;;1.58;1.00;;;28.80;99.90;;;;;;5073775;28;20441;-62
2022/08/04 09:49:20;;;;;;;3.10;1.40;;;28.80;99.90;;;;;;5073480;28;20083;-62
2022/08/04 09:51:54;;;;;;;2.30;1.25;;;28.90;99.90;;;;;;5072095;28;20435;-62
2022/08/04 09:54:38;;;;;;;2.63;1.33;;;28.90;99.90;;;;;;5073649;28;20041;-62
2022/08/04 09:57:13;;;;;;;2.38;1.42;;;28.80;99.90;;;;;;5073621;28;20048;-62
2022/08/04 09:59:56;;;;;;;2.45;1.17;;;28.80;99.90;;;;;;5071984;28;20055;-62
2022/08/04 10:02:24;;;;;;;3.58;1.25;;;28.80;99.90;;;;;;5073496;28;20035;-62
2022/08/04 10:04:55;;;;;;;2.50;1.65;;;28.70;99.90;;;;;;5073351;28;20036;-62
2022/08/04 10:07:53;;;;;;;3.70;1.55;;;28.60;99.90;;;;;;5073412;28;20500;-62
2022/08/04 10:10:31;;;;;;;2.88;1.35;;;28.50;99.90;;;;;;5071869;28;20048;-62
2022/08/04 10:13:02;;;;;;;2.45;1.50;;;28.50;99.90;;;;;;5072980;28;20072;-62
2022/08/04 10:15:35;;;;;;;3.08;1.60;;;28.40;99.90;;;;;;5073274;28;20044;-62
2022/08/04 10:18:42;;;;;;;3.58;1.52;;;28.40;99.90;;;;;;5071612;28;20458;-62
2022/08/04 10:21:35;;;;;;;2.97;1.50;;;28.40;99.90;;;;;;5072992;28;20056;-62
2022/08/04 10:24:13;;;;;;;2.83;1.77;;;28.50;99.90;;;;;;5073014;28;20513;-62
2022/08/04 10:26:55;;;;;;;2.65;1.40;;;28.40;99.90;;;;;;5071624;28;20037;-63
2022/08/04 10:29:35;;;;;;;3.17;1.60;;;28.40;99.90;;;;;;5071677;28;20080;-62
2022/08/04 10:32:13;;;;;;;2.60;1.52;;;28.40;99.90;;;;;;5071995;28;20392;-62
2022/08/04 10:34:47;;;;;;;4.45;1.50;;;28.40;99.90;;;;;;5073111;28;20040;-62
2022/08/04 10:37:26;;;;;;;4.68;1.67;;;28.40;99.90;;;;;;5071584;28;20464;-62
2022/08/04 10:43:24;;;;;;;2.92;1.58;;;28.40;99.90;;;;;;5072934;28;20059;-62
2022/08/04 10:46:05;;;;;;;3.38;1.60;;;28.40;99.90;;;;;;5072718;28;20043;-62
2022/08/04 10:48:50;;;;;;;2.42;1.42;;;28.40;99.90;;;;;;5072729;28;20044;-62
2022/08/04 10:51:45;;;;;;;5.18;1.80;;;28.50;99.90;;;;;;5072763;28;20044;-61
2022/08/04 10:54:16;;;;;;;2.22;1.50;;;28.60;99.90;;;;;;5072630;28;20045;-62
2022/08/04 10:57:09;;;;;;;2.17;1.50;;;28.60;99.90;;;;;;5055208;28;20369;-62
2022/08/04 11:00:05;;;;;;;3.60;1.42;;;28.70;99.90;;;;;;5072758;28;20091;-63
2022/08/04 11:03:17;;;;;;;1.83;1.23;;;28.60;99.90;;;;;;5072923;28;20049;-62
2022/08/04 11:05:45;;;;;;;5.45;1.60;;;28.50;99.90;;;;;;5072485;28;20075;-62
2022/08/04 11:08:34;;;;;;;2.05;1.38;;;28.50;99.90;;;;;;5072758;28;20036;-62
2022/08/04 11:11:24;;;;;;;2.85;1.15;;;28.40;99.90;;;;;;5070976;28;20044;-62
2022/08/04 11:13:59;;;;;;;1.80;1.05;;;28.40;99.90;;;;;;5072460;28;20041;-62
2022/08/04 11:17:06;;;;;;;1.95;1.10;;;28.40;99.90;;;;;;5071158;28;20407;-62
2022/08/04 11:20:00;;;;;;;3.85;1.10;;;28.40;99.90;;;;;;5071033;28;20048;-62
2022/08/04 11:22:26;;;;;;;1.50;1.02;;;28.40;99.90;;;;;;5072493;28;20039;-62
2022/08/04 11:25:19;;;;;;;0.88;0.75;;;28.40;99.90;;;;;;5072109;28;20040;-62
2022/08/04 11:28:17;;;;;;;1.23;0.93;;;28.40;99.90;;;;;;5071095;28;20441;-62
2022/08/04 11:31:03;;;;;;;1.70;0.68;;;28.40;99.90;;;;;;5072111;28;20055;-62
2022/08/04 11:34:06;;;;;;;1.88;0.98;;;28.40;99.90;;;;;;5072514;28;20047;-62
2022/08/04 11:36:45;;;;;;;4.07;1.42;;;28.20;99.90;;;;;;5072448;28;20504;-62
2022/08/04 11:39:36;;;;;;;1.35;0.95;;;28.00;99.90;;;;;;5072182;28;20381;-61
2022/08/04 11:42:29;;;;;;;0.93;0.70;;;27.90;99.90;;;;;;5072510;28;20492;-62
2022/08/04 11:45:06;;;;;;;1.17;0.80;;;27.80;99.90;;;;;;5072473;28;20041;-62
2022/08/04 11:47:38;;;;;;;2.80;0.70;;;27.70;99.90;;;;;;5072389;28;20037;-62
2022/08/04 11:50:32;;;;;;;2.03;1.00;;;27.80;99.90;;;;;;5071149;28;20392;-62
2022/08/04 11:52:59;;;;;;;2.05;0.80;;;27.70;99.90;;;;;;5072057;28;20084;-62
2022/08/04 11:55:26;;;;;;;0.98;0.70;;;27.60;99.90;;;;;;5073915;28;20076;-62
2022/08/04 11:57:52;;;;;;;2.50;1.10;;;27.60;99.90;;;;;;5075815;28;20365;-62
2022/08/04 12:00:19;;;;;;;2.13;0.90;;;27.50;99.90;;;;;;5074258;28;20071;-62
2022/08/04 12:02:59;;;;;;;4.40;1.30;;;27.50;99.90;;;;;;5075461;28;20043;-62
2022/08/04 12:05:31;;;;;;;1.67;0.80;;;27.50;99.90;;;;;;5075737;28;20060;-62
2022/08/04 12:08:20;;;;;;;3.30;1.02;;;27.40;99.90;;;;;;5075843;28;20431;-62
2022/08/04 12:11:18;;;;;;;4.15;1.10;;;27.20;99.90;;;;;;5075492;28;20404;-62
2022/08/04 12:13:53;;;;;;;1.95;1.10;;;27.10;99.90;;;;;;5058651;28;20114;-63
2022/08/04 12:16:40;;;;;;;1.42;0.85;;;27.20;99.90;;;;;;5074222;28;20060;-62
2022/08/04 12:19:20;;;;;;;2.35;1.15;;;27.10;99.90;;;;;;5075511;28;20052;-62
2022/08/04 12:21:50;;;;;;;1.63;0.80;;;27.00;99.90;;;;;;5073898;28;20032;-62
2022/08/04 12:24:46;;;;;;;1.27;0.77;;;27.00;99.90;;;;;;5075490;28;20040;-62
2022/08/04 12:27:18;;;;;;;1.25;0.90;;;26.90;99.90;;;;;;5073573;28;20045;-62
2022/08/04 12:29:45;;;;;;;1.10;0.82;;;26.90;99.90;;;;;;5074041;28;20053;-62
2022/08/04 12:32:29;;;;;;;1.38;1.05;;;26.80;99.90;;;;;;5074056;28;20119;-62
2022/08/04 12:34:58;;;;;;;0.50;0.50;;;26.80;99.90;;;;;;5073717;28;20052;-62
2022/08/04 12:38:02;;;;;;;1.35;0.90;;;26.70;99.90;;;;;;5073588;28;20052;-62
2022/08/04 12:40:50;;;;;;;1.77;0.82;;;26.60;99.90;;;;;;5074773;28;20052;-62
2022/08/04 12:43:22;;;;;;;0.95;0.68;;;26.40;99.90;;;;;;5075071;28;20070;-62
2022/08/04 12:45:58;;;;;;;0.55;0.52;;;26.30;99.90;;;;;;5074981;28;20044;-62
2022/08/04 12:48:25;;;;;;;1.35;0.52;;;26.10;99.90;;;;;;5074979;28;20431;-62
2022/08/04 12:50:53;;;;;;;1.10;0.75;;;26.00;99.90;;;;;;5074662;28;20556;-62
2022/08/04 12:53:25;;;;;;;1.30;0.70;;;25.80;99.90;;;;;;5073344;28;20044;-62
2022/08/04 12:55:52;;;;;;;0.90;0.47;;;25.80;99.90;;;;;;5073273;28;20123;-62
2022/08/04 12:58:23;;;;;;;0.52;0.50;;;25.70;99.90;;;;;;5073264;28;20516;-62
2022/08/04 13:01:18;;;;;;;1.13;0.70;;;25.50;99.90;;;;;;5074683;28;20041;-61
2022/08/04 13:04:08;;;;;;;2.33;1.00;;;25.50;99.90;;;;;;5072013;28;20056;-62
2022/08/04 13:06:36;;;;;;;1.13;0.85;;;25.50;99.90;;;;;;5072796;28;20476;-62
2022/08/04 13:09:14;;;;;;;1.15;0.70;;;25.50;99.90;;;;;;5056887;28;20040;-62
2022/08/04 13:11:46;;;;;;;1.50;0.68;;;25.60;99.90;;;;;;5073000;28;20056;-62
2022/08/04 13:14:14;;;;;;;1.80;0.60;;;25.70;99.90;;;;;;5072904;28;20047;-62
2022/08/04 13:16:40;;;;;;;1.48;0.80;;;25.80;99.90;;;;;;5074118;28;20061;-62
2022/08/04 13:19:08;;;;;;;0.77;0.50;;;25.80;99.90;;;;;;5072984;28;20047;-62
2022/08/04 13:21:39;;;;;;;1.00;0.63;;;25.80;99.90;;;;;;5074231;28;20040;-62
2022/08/04 13:24:12;;;;;;;1.10;0.70;;;25.90;99.90;;;;;;5072730;28;20087;-62
2022/08/04 13:26:51;;;;;;;1.67;0.70;;;25.90;99.90;;;;;;5074133;28;20550;-62
2022/08/04 13:29:18;;;;;;;0.80;0.60;;;25.90;99.90;;;;;;5106514;28;20049;-62
2022/08/04 13:31:45;;;;;;;3.60;0.82;;;26.10;99.90;;;;;;5074064;28;20267;-62
2022/08/04 13:34:14;;;;;;;0.52;0.50;;;26.40;99.90;;;;;;5074002;28;20047;-62
2022/08/04 13:36:41;;;;;;;0.47;0.40;;;26.70;99.90;;;;;;5073961;28;20032;-62
2022/08/04 13:39:16;;;;;;;2.38;0.75;;;26.80;99.90;;;;;;5073875;28;20045;-62
2022/08/04 13:41:50;;;;;;;0.43;0.43;;;26.80;99.90;;;;;;5073866;28;20484;-62
2022/08/04 13:44:21;;;;;;;0.57;0.52;;;26.80;99.90;;;;;;5073854;28;20033;-62
2022/08/04 13:46:50;;;;;;;0.70;0.57;;;26.80;99.90;;;;;;5072191;28;20063;-62